Time;durP1;ratioP1;P1;durP2;ratioP2;P2;SDS_P1;SDS_P2;PMS_P1;PMS_P2;Temp;Humidity;BMP_temperature;BMP_pressure;BME280_temperature;BME280_humidity;BME280_pressure;Samples;Min_cycle;Max_cycle;Signal;HPM_P1;HPM_P2
2021/11/27 00:00:37;;;;;;;;;;;20.20;51.00;;;;;;3141051;28;20304;-57
2021/11/27 00:02:08;;;;;;;;;;;20.20;51.00;;;;;;3142767;28;19967;-58
2021/11/27 00:03:40;;;;;;;;;;;20.20;50.90;;;;;;3142159;28;19924;-58
2021/11/27 00:05:12;;;;;;;;;;;20.30;50.90;;;;;;3146341;28;19935;-58
2021/11/27 00:06:43;;;;;;;;;;;20.30;50.80;;;;;;3143465;28;20365;-57
2021/11/27 00:08:15;;;;;;;;;;;20.30;50.90;;;;;;3146566;28;19924;-58
2021/11/27 00:09:48;;;;;;;;;;;20.30;50.90;;;;;;3143609;28;19932;-58
2021/11/27 00:11:20;;;;;;;;;;;20.30;50.90;;;;;;3133874;28;19925;-57
2021/11/27 00:12:51;;;;;;;;;;;20.30;50.70;;;;;;3133204;28;19929;-56
2021/11/27 00:14:23;;;;;;;;;;;20.30;50.90;;;;;;3138968;28;19929;-58
2021/11/27 00:15:54;;;;;;;;;;;20.30;50.80;;;;;;3142215;28;20301;-58
2021/11/27 00:17:26;;;;;;;;;;;20.30;50.70;;;;;;3145845;28;20635;-58
2021/11/27 00:18:57;;;;;;;;;;;20.30;50.70;;;;;;3144022;28;19925;-58
2021/11/27 00:20:30;;;;;;;;;;;20.40;50.70;;;;;;3145667;28;19924;-59
2021/11/27 00:22:01;;;;;;;;;;;20.40;50.60;;;;;;3137535;28;19929;-58
2021/11/27 00:23:34;;;;;;;;;;;20.50;50.60;;;;;;3136043;28;19978;-59
2021/11/27 00:25:08;;;;;;;;;;;20.40;50.60;;;;;;3145254;28;19928;-58
2021/11/27 00:26:39;;;;;;;;;;;20.40;50.60;;;;;;3144119;28;19974;-58
2021/11/27 00:28:11;;;;;;;;;;;20.40;50.70;;;;;;3145360;28;19929;-59
2021/11/27 00:29:43;;;;;;;;;;;20.40;50.70;;;;;;3143407;28;20565;-58
2021/11/27 00:31:15;;;;;;;;;;;20.40;50.60;;;;;;3138468;28;19924;-58
2021/11/27 00:32:47;;;;;;;;;;;20.40;50.70;;;;;;3142139;28;20370;-57
2021/11/27 00:34:18;;;;;;;;;;;20.40;50.70;;;;;;3138224;28;19933;-58
2021/11/27 00:35:50;;;;;;;;;;;20.50;50.70;;;;;;3136641;28;19925;-58
2021/11/27 00:37:22;;;;;;;;;;;20.50;50.60;;;;;;3145989;28;19931;-57
2021/11/27 00:38:53;;;;;;;;;;;20.50;50.60;;;;;;3145650;28;19925;-59
2021/11/27 00:40:26;;;;;;;;;;;20.50;50.70;;;;;;3144494;28;19966;-57
2021/11/27 00:41:58;;;;;;;;;;;20.50;50.70;;;;;;3137755;28;19998;-58
2021/11/27 00:43:29;;;;;;;;;;;20.40;50.70;;;;;;3144451;28;19958;-58
2021/11/27 00:45:01;;;;;;;;;;;20.50;50.70;;;;;;3138055;28;20317;-59
2021/11/27 00:46:33;;;;;;;;;;;20.40;50.70;;;;;;3142766;28;19924;-58
2021/11/27 00:48:05;;;;;;;;;;;20.50;50.70;;;;;;3133337;28;19929;-58
2021/11/27 00:49:36;;;;;;;;;;;20.50;50.70;;;;;;3142454;28;20300;-59
2021/11/27 00:51:08;;;;;;;;;;;20.50;50.70;;;;;;3143887;28;19932;-58
2021/11/27 00:52:40;;;;;;;;;;;20.50;50.60;;;;;;3140221;28;20102;-58
2021/11/27 00:54:11;;;;;;;;;;;20.50;50.60;;;;;;3132481;28;19983;-58
2021/11/27 00:55:44;;;;;;;;;;;20.50;50.50;;;;;;3140378;28;19932;-57
2021/11/27 00:57:16;;;;;;;;;;;20.50;50.60;;;;;;3142596;28;19978;-58
2021/11/27 00:58:48;;;;;;;;;;;20.50;50.60;;;;;;3145198;28;19970;-57
2021/11/27 01:00:20;;;;;;;;;;;20.50;50.60;;;;;;3141212;28;20379;-57
2021/11/27 01:01:51;;;;;;;;;;;20.50;50.70;;;;;;3135743;28;19983;-59
2021/11/27 01:03:23;;;;;;;;;;;20.50;50.70;;;;;;3144897;28;19925;-59
2021/11/27 01:04:55;;;;;;;;;;;20.50;50.70;;;;;;3143590;28;19978;-59
2021/11/27 01:06:27;;;;;;;;;;;20.50;50.80;;;;;;3143434;28;20494;-58
2021/11/27 01:07:58;;;;;;;;;;;20.50;50.70;;;;;;3141494;28;19925;-58
2021/11/27 01:09:30;;;;;;;;;;;20.50;50.70;;;;;;3140516;28;20253;-57
2021/11/27 01:11:04;;;;;;;;;;;20.50;50.60;;;;;;3143293;28;19929;-58
2021/11/27 01:12:36;;;;;;;;;;;20.50;50.70;;;;;;3138325;28;19928;-56
2021/11/27 01:14:11;;;;;;;;;;;20.50;50.70;;;;;;3143711;28;20296;-57
2021/11/27 01:15:43;;;;;;;;;;;20.50;50.70;;;;;;3139338;28;20019;-59
2021/11/27 01:17:14;;;;;;;;;;;20.50;50.70;;;;;;3142839;28;19932;-57
2021/11/27 01:18:46;;;;;;;;;;;20.50;50.70;;;;;;3139727;28;19928;-56
2021/11/27 01:20:20;;;;;;;;;;;20.50;50.70;;;;;;3137522;28;19935;-58
2021/11/27 01:21:52;;;;;;;;;;;20.50;50.70;;;;;;3144592;28;19940;-58
2021/11/27 01:23:23;;;;;;;;;;;20.40;50.80;;;;;;3142826;28;20733;-55
2021/11/27 01:24:55;;;;;;;;;;;20.50;50.80;;;;;;3141645;28;19932;-58
2021/11/27 01:26:28;;;;;;;;;;;20.40;50.80;;;;;;3143011;28;19924;-58
2021/11/27 01:28:00;;;;;;;;;;;20.50;50.90;;;;;;3143475;28;19994;-58
2021/11/27 01:29:31;;;;;;;;;;;20.50;50.80;;;;;;3143444;28;20430;-57
2021/11/27 01:31:03;;;;;;;;;;;20.50;50.80;;;;;;3144164;28;19955;-57
2021/11/27 01:32:35;;;;;;;;;;;20.50;50.90;;;;;;3135252;28;19975;-57
2021/11/27 01:34:06;;;;;;;;;;;20.40;50.80;;;;;;3135308;28;20719;-58
2021/11/27 01:35:38;;;;;;;;;;;20.50;50.80;;;;;;3143204;28;19924;-58
2021/11/27 01:37:09;;;;;;;;;;;20.50;50.80;;;;;;3136991;28;19924;-57
2021/11/27 01:38:40;;;;;;;;;;;20.50;50.70;;;;;;3132652;28;19920;-59
2021/11/27 01:40:13;;;;;;;;;;;20.50;50.80;;;;;;3132147;28;19978;-58
2021/11/27 01:41:46;;;;;;;;;;;20.40;50.80;;;;;;3134980;28;19983;-59
2021/11/27 01:43:18;;;;;;;;;;;20.50;50.80;;;;;;3138867;28;19978;-57
2021/11/27 01:44:49;;;;;;;;;;;20.50;50.70;;;;;;3135941;28;20359;-58
2021/11/27 01:46:21;;;;;;;;;;;20.50;50.70;;;;;;3135599;28;19986;-59
2021/11/27 01:47:53;;;;;;;;;;;20.50;50.70;;;;;;3136066;28;20696;-58
2021/11/27 01:49:26;;;;;;;;;;;20.50;50.70;;;;;;3135273;28;20301;-57
2021/11/27 01:50:59;;;;;;;;;;;20.50;50.60;;;;;;3138207;28;19925;-59
2021/11/27 01:52:30;;;;;;;;;;;20.60;50.70;;;;;;3144037;28;19924;-57
2021/11/27 01:54:04;;;;;;;;;;;20.60;50.60;;;;;;3144531;28;20516;-59
2021/11/27 01:55:35;;;;;;;;;;;20.60;50.60;;;;;;3138477;28;19931;-58
2021/11/27 01:57:08;;;;;;;;;;;20.60;50.70;;;;;;3141120;28;19947;-59
2021/11/27 01:58:40;;;;;;;;;;;20.50;50.60;;;;;;3138464;28;19944;-59
2021/11/27 02:00:12;;;;;;;;;;;20.50;50.60;;;;;;3140805;28;19947;-58
2021/11/27 02:01:44;;;;;;;;;;;20.50;50.60;;;;;;3142226;28;19932;-59
2021/11/27 02:03:16;;;;;;;;;;;20.50;50.60;;;;;;3137292;28;19978;-59
2021/11/27 02:04:47;;;;;;;;;;;20.60;50.60;;;;;;3142808;28;19932;-58
2021/11/27 02:06:20;;;;;;;;;;;20.60;50.60;;;;;;3143939;28;19950;-58
2021/11/27 02:07:51;;;;;;;;;;;20.50;50.60;;;;;;3139559;28;21329;-58
2021/11/27 02:09:24;;;;;;;;;;;20.50;50.70;;;;;;3136201;28;20004;-59
2021/11/27 02:10:55;;;;;;;;;;;20.50;50.60;;;;;;3144667;28;19982;-58
2021/11/27 02:12:28;;;;;;;;;;;20.50;50.70;;;;;;3138873;28;19971;-59
2021/11/27 02:14:00;;;;;;;;;;;20.50;50.60;;;;;;3140002;28;20296;-57
2021/11/27 02:15:32;;;;;;;;;;;20.60;50.60;;;;;;3135913;28;21511;-59
2021/11/27 02:17:03;;;;;;;;;;;20.50;50.60;;;;;;3134845;28;19928;-59
2021/11/27 02:18:35;;;;;;;;;;;20.50;50.70;;;;;;3142855;28;20324;-58
2021/11/27 02:20:07;;;;;;;;;;;20.50;50.70;;;;;;3136263;28;19929;-57
2021/11/27 02:21:43;;;;;;;;;;;20.50;50.70;;;;;;3139077;28;20358;-58
2021/11/27 02:23:15;;;;;;;;;;;20.50;50.60;;;;;;3140600;28;20617;-58
2021/11/27 02:24:47;;;;;;;;;;;20.60;50.70;;;;;;3144844;28;19925;-58
2021/11/27 02:26:19;;;;;;;;;;;20.50;50.80;;;;;;3143402;28;19928;-59
2021/11/27 02:27:51;;;;;;;;;;;20.50;50.80;;;;;;3143146;28;19932;-58
2021/11/27 02:29:23;;;;;;;;;;;20.50;50.70;;;;;;3143080;28;19924;-59
2021/11/27 02:30:55;;;;;;;;;;;20.50;50.70;;;;;;3133626;28;19924;-58
2021/11/27 02:32:26;;;;;;;;;;;20.50;50.70;;;;;;3140086;28;19925;-59
2021/11/27 02:33:58;;;;;;;;;;;20.50;50.70;;;;;;3140585;28;19925;-59
2021/11/27 02:35:29;;;;;;;;;;;20.50;50.70;;;;;;3136798;28;19932;-58
2021/11/27 02:37:03;;;;;;;;;;;20.50;50.80;;;;;;3134908;28;19925;-59
2021/11/27 02:38:35;;;;;;;;;;;20.50;50.70;;;;;;3144370;28;20372;-59
2021/11/27 02:40:07;;;;;;;;;;;20.50;50.70;;;;;;3142327;28;19925;-59
2021/11/27 02:41:38;;;;;;;;;;;20.50;50.70;;;;;;3140915;28;19946;-59
2021/11/27 02:43:10;;;;;;;;;;;20.40;50.70;;;;;;3135652;28;20316;-59
2021/11/27 02:44:41;;;;;;;;;;;20.50;50.70;;;;;;3143101;28;19924;-58
2021/11/27 02:46:13;;;;;;;;;;;20.50;50.80;;;;;;3142366;28;19925;-59
2021/11/27 02:47:45;;;;;;;;;;;20.50;50.80;;;;;;3141126;28;19924;-57
2021/11/27 02:49:16;;;;;;;;;;;20.50;50.80;;;;;;3133286;28;20445;-59
2021/11/27 02:50:48;;;;;;;;;;;20.40;50.90;;;;;;3142130;28;19970;-58
2021/11/27 02:52:21;;;;;;;;;;;20.40;50.80;;;;;;3141645;28;20289;-59
2021/11/27 02:53:52;;;;;;;;;;;20.50;51.50;;;;;;3144631;28;20319;-58
2021/11/27 02:55:24;;;;;;;;;;;20.40;51.00;;;;;;3145246;28;19931;-56
2021/11/27 02:56:56;;;;;;;;;;;20.40;50.90;;;;;;3140510;28;19925;-58
2021/11/27 02:58:28;;;;;;;;;;;20.40;50.90;;;;;;3144011;28;20359;-58
2021/11/27 03:00:00;;;;;;;;;;;20.50;50.80;;;;;;3144662;28;19944;-59
2021/11/27 03:01:32;;;;;;;;;;;20.40;50.90;;;;;;3144900;28;20011;-59
2021/11/27 03:03:04;;;;;;;;;;;20.40;50.90;;;;;;3138475;28;19925;-57
2021/11/27 03:04:36;;;;;;;;;;;20.50;50.90;;;;;;3141851;28;20581;-57
2021/11/27 03:06:07;;;;;;;;;;;20.50;50.80;;;;;;3139545;28;19947;-59
2021/11/27 03:07:40;;;;;;;;;;;20.50;50.70;;;;;;3139701;28;19932;-59
2021/11/27 03:09:13;;;;;;;;;;;20.50;50.80;;;;;;3140721;28;19931;-59
2021/11/27 03:10:44;;;;;;;;;;;20.50;50.70;;;;;;3140758;28;19929;-58
2021/11/27 03:12:16;;;;;;;;;;;20.50;50.70;;;;;;3141839;28;19977;-58
2021/11/27 03:13:47;;;;;;;;;;;20.40;50.70;;;;;;3139497;28;20181;-58
2021/11/27 03:15:19;;;;;;;;;;;20.50;50.80;;;;;;3141541;28;19937;-57
2021/11/27 03:16:51;;;;;;;;;;;20.50;50.80;;;;;;3146065;28;19951;-58
2021/11/27 03:18:22;;;;;;;;;;;20.50;50.70;;;;;;3139459;28;20328;-58
2021/11/27 03:19:55;;;;;;;;;;;20.50;50.80;;;;;;3139742;28;19925;-58
2021/11/27 03:21:26;;;;;;;;;;;20.50;50.80;;;;;;3139089;28;20277;-57
2021/11/27 03:22:59;;;;;;;;;;;20.50;50.80;;;;;;3146342;28;19925;-58
2021/11/27 03:24:31;;;;;;;;;;;20.40;50.90;;;;;;3145751;28;19981;-58
2021/11/27 03:26:02;;;;;;;;;;;20.40;50.80;;;;;;3144939;28;20492;-58
2021/11/27 03:27:34;;;;;;;;;;;20.50;50.60;;;;;;3145746;28;20293;-57
2021/11/27 03:29:06;;;;;;;;;;;20.50;50.60;;;;;;3142075;28;19932;-59
2021/11/27 03:30:37;;;;;;;;;;;20.50;50.80;;;;;;3136114;28;19924;-58
2021/11/27 03:32:09;;;;;;;;;;;20.50;50.80;;;;;;3140149;28;20321;-59
2021/11/27 03:33:41;;;;;;;;;;;20.50;50.70;;;;;;3133891;28;20630;-58
2021/11/27 03:35:12;;;;;;;;;;;20.50;50.70;;;;;;3134391;28;19925;-57
2021/11/27 03:36:44;;;;;;;;;;;20.50;50.70;;;;;;3144962;28;19935;-56
2021/11/27 03:38:17;;;;;;;;;;;20.50;50.70;;;;;;3146332;28;19925;-59
2021/11/27 03:39:48;;;;;;;;;;;20.50;50.80;;;;;;3144411;28;19924;-57
2021/11/27 03:41:20;;;;;;;;;;;20.50;50.70;;;;;;3135695;28;19932;-57
2021/11/27 03:42:52;;;;;;;;;;;20.50;50.70;;;;;;3136475;28;20381;-58
2021/11/27 03:44:23;;;;;;;;;;;20.50;50.70;;;;;;3136180;28;19931;-59
2021/11/27 03:45:55;;;;;;;;;;;20.50;50.70;;;;;;3135881;28;19928;-57
2021/11/27 03:47:26;;;;;;;;;;;20.50;50.70;;;;;;3134003;28;19971;-59
2021/11/27 03:48:58;;;;;;;;;;;20.50;50.60;;;;;;3133953;28;19937;-58
2021/11/27 03:50:30;;;;;;;;;;;20.60;50.60;;;;;;3136887;28;19939;-58
2021/11/27 03:52:01;;;;;;;;;;;20.60;50.60;;;;;;3141905;28;20324;-58
2021/11/27 03:53:35;;;;;;;;;;;20.50;50.70;;;;;;3143847;28;19977;-57
2021/11/27 03:55:07;;;;;;;;;;;20.50;50.70;;;;;;3141257;28;19967;-59
2021/11/27 03:56:38;;;;;;;;;;;20.50;50.70;;;;;;3143882;28;20392;-58
2021/11/27 03:58:10;;;;;;;;;;;20.50;50.60;;;;;;3141323;28;19928;-59
2021/11/27 03:59:42;;;;;;;;;;;20.50;50.70;;;;;;3135149;28;19928;-58
2021/11/27 04:01:14;;;;;;;;;;;20.50;50.70;;;;;;3134158;28;19925;-57
2021/11/27 04:02:46;;;;;;;;;;;20.50;50.60;;;;;;3140240;28;19929;-57
2021/11/27 04:04:16;;;;;;;;;;;20.50;50.50;;;;;;3139191;28;19960;-58
2021/11/27 04:05:49;;;;;;;;;;;20.50;50.50;;;;;;3136831;28;20007;-59
2021/11/27 04:07:20;;;;;;;;;;;20.60;50.60;;;;;;3145742;28;19928;-58
2021/11/27 04:08:54;;;;;;;;;;;20.60;50.60;;;;;;3142048;28;19937;-58
2021/11/27 04:10:26;;;;;;;;;;;20.50;50.60;;;;;;3135177;28;20514;-58
2021/11/27 04:11:57;;;;;;;;;;;20.50;50.50;;;;;;3140172;28;19936;-59
2021/11/27 04:13:29;;;;;;;;;;;20.60;50.50;;;;;;3145081;28;20620;-57
2021/11/27 04:15:02;;;;;;;;;;;20.50;50.50;;;;;;3144257;28;20296;-58
2021/11/27 04:16:34;;;;;;;;;;;20.50;50.50;;;;;;3141040;28;19932;-58
2021/11/27 04:18:05;;;;;;;;;;;20.50;50.50;;;;;;3140067;28;20409;-59
2021/11/27 04:19:37;;;;;;;;;;;20.50;50.60;;;;;;3135671;28;19928;-58
2021/11/27 04:21:09;;;;;;;;;;;20.50;50.50;;;;;;3145357;28;19924;-57
2021/11/27 04:22:40;;;;;;;;;;;20.50;50.50;;;;;;3144900;28;19924;-59
2021/11/27 04:24:13;;;;;;;;;;;20.50;50.60;;;;;;3144432;28;19924;-59
2021/11/27 04:25:45;;;;;;;;;;;20.50;50.50;;;;;;3137293;28;19931;-59
2021/11/27 04:27:16;;;;;;;;;;;20.50;50.50;;;;;;3144191;28;19924;-58
2021/11/27 04:28:48;;;;;;;;;;;20.50;50.50;;;;;;3138637;28;19929;-57
2021/11/27 04:30:21;;;;;;;;;;;20.50;50.40;;;;;;3133505;28;19971;-59
2021/11/27 04:31:52;;;;;;;;;;;20.50;50.50;;;;;;3134252;28;19929;-57
2021/11/27 04:33:24;;;;;;;;;;;20.50;50.40;;;;;;3133019;28;20447;-59
2021/11/27 04:34:55;;;;;;;;;;;20.50;50.50;;;;;;3142661;28;19925;-57
2021/11/27 04:36:27;;;;;;;;;;;20.50;50.60;;;;;;3144889;28;19993;-57
2021/11/27 04:37:59;;;;;;;;;;;20.50;50.60;;;;;;3141340;28;19925;-58
2021/11/27 04:39:31;;;;;;;;;;;20.50;50.50;;;;;;3143581;28;19925;-58
2021/11/27 04:41:03;;;;;;;;;;;20.50;50.60;;;;;;3136984;28;20301;-59
2021/11/27 04:42:35;;;;;;;;;;;20.50;50.60;;;;;;3143690;28;19931;-58
2021/11/27 04:44:06;;;;;;;;;;;20.50;50.40;;;;;;3144559;28;19924;-58
2021/11/27 04:45:38;;;;;;;;;;;20.50;50.50;;;;;;3142706;28;19979;-57
2021/11/27 04:47:09;;;;;;;;;;;20.50;50.40;;;;;;3139149;28;19952;-58
2021/11/27 04:48:41;;;;;;;;;;;20.50;50.40;;;;;;3135143;28;19933;-58
2021/11/27 04:50:13;;;;;;;;;;;20.50;50.50;;;;;;3143870;28;20456;-59
2021/11/27 04:51:44;;;;;;;;;;;20.50;50.50;;;;;;3141155;28;19998;-58
2021/11/27 04:53:16;;;;;;;;;;;20.50;50.40;;;;;;3146023;28;19932;-59
2021/11/27 04:54:49;;;;;;;;;;;20.50;50.40;;;;;;3145417;28;19931;-58
2021/11/27 04:56:20;;;;;;;;;;;20.60;50.30;;;;;;3143540;28;20458;-59
2021/11/27 04:57:52;;;;;;;;;;;20.60;50.30;;;;;;3144874;28;19933;-58
2021/11/27 04:59:23;;;;;;;;;;;20.70;50.30;;;;;;3144696;28;20752;-59
2021/11/27 05:00:55;;;;;;;;;;;20.70;50.10;;;;;;3138088;28;19970;-57
2021/11/27 05:02:27;;;;;;;;;;;20.60;50.10;;;;;;3141129;28;19978;-59
2021/11/27 05:03:58;;;;;;;;;;;20.60;50.20;;;;;;3144286;28;19928;-59
2021/11/27 05:05:30;;;;;;;;;;;20.70;50.10;;;;;;3144983;28;19944;-58
2021/11/27 05:07:01;;;;;;;;;;;20.60;50.10;;;;;;3143854;28;20319;-59
2021/11/27 05:08:33;;;;;;;;;;;20.60;50.10;;;;;;3144676;28;19935;-58
2021/11/27 05:10:06;;;;;;;;;;;20.60;50.10;;;;;;3145637;28;19924;-58
2021/11/27 05:11:38;;;;;;;;;;;20.70;50.10;;;;;;3135019;28;20317;-59
2021/11/27 05:13:10;;;;;;;;;;;20.70;50.10;;;;;;3139460;28;19928;-59
2021/11/27 05:14:41;;;;;;;;;;;20.70;50.00;;;;;;3135947;28;19928;-58
2021/11/27 05:16:13;;;;;;;;;;;20.70;50.00;;;;;;3140849;28;19928;-59
2021/11/27 05:17:44;;;;;;;;;;;20.60;50.10;;;;;;3142586;28;19928;-58
2021/11/27 05:19:16;;;;;;;;;;;20.70;50.10;;;;;;3138616;28;20289;-59
2021/11/27 05:20:47;;;;;;;;;;;20.60;50.00;;;;;;3144126;28;19970;-58
2021/11/27 05:22:19;;;;;;;;;;;20.60;50.00;;;;;;3144583;28;19929;-59
2021/11/27 05:23:51;;;;;;;;;;;20.70;50.00;;;;;;3141328;28;20335;-58
2021/11/27 05:25:23;;;;;;;;;;;20.70;49.80;;;;;;3142753;28;19932;-57
2021/11/27 05:26:55;;;;;;;;;;;20.70;49.90;;;;;;3141907;28;19924;-58
2021/11/27 05:28:27;;;;;;;;;;;20.70;49.90;;;;;;3144187;28;19929;-60
2021/11/27 05:29:58;;;;;;;;;;;20.70;50.00;;;;;;3137766;28;19970;-59
2021/11/27 05:31:30;;;;;;;;;;;20.60;49.90;;;;;;3140237;28;20403;-56
2021/11/27 05:33:11;;;;;;;;;;;20.70;49.90;;;;;;3134722;28;20339;-58
2021/11/27 05:34:41;;;;;;;;;;;20.70;50.00;;;;;;3141388;28;19928;-59
2021/11/27 05:36:13;;;;;;;;;;;20.70;50.00;;;;;;3142082;28;19920;-59
2021/11/27 05:37:45;;;;;;;;;;;20.70;49.90;;;;;;3144347;28;19928;-59
2021/11/27 05:39:16;;;;;;;;;;;20.70;49.80;;;;;;3143818;28;20330;-58
2021/11/27 05:40:49;;;;;;;;;;;20.70;49.80;;;;;;3138153;28;19924;-58
2021/11/27 05:42:21;;;;;;;;;;;20.70;49.80;;;;;;3139120;28;20281;-59
2021/11/27 05:43:53;;;;;;;;;;;20.80;49.80;;;;;;3144023;28;19936;-59
2021/11/27 05:45:28;;;;;;;;;;;20.80;49.70;;;;;;3142996;28;19932;-58
2021/11/27 05:46:59;;;;;;;;;;;20.80;49.70;;;;;;3139376;28;19925;-57
2021/11/27 05:48:31;;;;;;;;;;;20.80;49.60;;;;;;3138712;28;20392;-58
2021/11/27 05:50:03;;;;;;;;;;;20.80;49.60;;;;;;3140548;28;19928;-59
2021/11/27 05:51:34;;;;;;;;;;;20.80;49.50;;;;;;3142712;28;19932;-59
2021/11/27 05:53:06;;;;;;;;;;;20.80;49.50;;;;;;3138206;28;19924;-59
2021/11/27 05:54:38;;;;;;;;;;;20.80;49.50;;;;;;3133005;28;19928;-58
2021/11/27 05:56:10;;;;;;;;;;;20.90;49.40;;;;;;3141254;28;19933;-59
2021/11/27 05:57:42;;;;;;;;;;;20.90;49.40;;;;;;3131721;28;19928;-58
2021/11/27 05:59:14;;;;;;;;;;;20.90;49.40;;;;;;3132050;28;19970;-60
2021/11/27 06:00:45;;;;;;;;;;;20.90;49.40;;;;;;3134117;28;20286;-58
2021/11/27 06:02:17;;;;;;;;;;;20.90;49.30;;;;;;3133469;28;19925;-59
2021/11/27 06:03:48;;;;;;;;;;;20.90;49.20;;;;;;3140116;28;20397;-61
2021/11/27 06:05:20;;;;;;;;;;;21.00;49.20;;;;;;3133380;28;19970;-59
2021/11/27 06:06:51;;;;;;;;;;;21.00;49.80;;;;;;3142757;28;19939;-59
2021/11/27 06:08:23;;;;;;;;;;;21.00;49.80;;;;;;3142798;28;19928;-59
2021/11/27 06:09:55;;;;;;;;;;;21.10;49.40;;;;;;3133726;28;19924;-59
2021/11/27 06:11:28;;;;;;;;;;;21.00;49.30;;;;;;3141328;28;19932;-59
2021/11/27 06:12:59;;;;;;;;;;;21.10;49.40;;;;;;3142585;28;20589;-58
2021/11/27 06:14:33;;;;;;;;;;;21.10;49.90;;;;;;3137806;28;19925;-58
2021/11/27 06:16:06;;;;;;;;;;;21.20;50.10;;;;;;3142112;28;19932;-59
2021/11/27 06:17:38;;;;;;;;;;;21.20;50.30;;;;;;3139453;28;20377;-59
2021/11/27 06:19:10;;;;;;;;;;;21.30;50.30;;;;;;3140876;28;20604;-59
2021/11/27 06:20:41;;;;;;;;;;;21.40;50.30;;;;;;3137831;28;19925;-59
2021/11/27 06:22:13;;;;;;;;;;;21.40;50.10;;;;;;3143246;28;19950;-56
2021/11/27 06:23:44;;;;;;;;;;;21.50;50.10;;;;;;3076498;28;1742358;-56
2021/11/27 06:25:16;;;;;;;;;;;21.60;50.10;;;;;;3141287;28;19932;-58
2021/11/27 06:26:49;;;;;;;;;;;21.60;50.00;;;;;;3143273;28;19928;-56
2021/11/27 06:28:21;;;;;;;;;;;21.70;50.10;;;;;;3143072;28;20301;-59
2021/11/27 06:29:52;;;;;;;;;;;21.70;50.20;;;;;;3142320;28;19928;-60
2021/11/27 06:31:24;;;;;;;;;;;21.70;50.10;;;;;;3143619;28;19924;-60
2021/11/27 06:32:55;;;;;;;;;;;21.80;50.20;;;;;;3143596;28;19924;-59
2021/11/27 06:34:27;;;;;;;;;;;21.80;50.30;;;;;;3143169;28;19974;-59
2021/11/27 06:35:59;;;;;;;;;;;21.80;50.30;;;;;;3139831;28;19944;-58
2021/11/27 06:37:30;;;;;;;;;;;21.80;50.20;;;;;;3145138;28;19924;-57
2021/11/27 06:39:02;;;;;;;;;;;21.80;49.70;;;;;;3147001;28;20393;-57
2021/11/27 06:40:33;;;;;;;;;;;21.70;49.40;;;;;;3145702;28;19978;-59
2021/11/27 06:42:07;;;;;;;;;;;21.70;49.70;;;;;;3144235;28;19931;-58
2021/11/27 06:43:38;;;;;;;;;;;21.80;50.10;;;;;;3137935;28;19937;-58
2021/11/27 06:45:10;;;;;;;;;;;21.80;50.20;;;;;;3146069;28;19925;-60
2021/11/27 06:46:41;;;;;;;;;;;21.80;50.60;;;;;;3143489;28;19929;-60
2021/11/27 06:48:13;;;;;;;;;;;21.90;50.60;;;;;;3138880;28;20468;-56
2021/11/27 06:49:45;;;;;;;;;;;21.90;50.70;;;;;;3145458;28;19924;-59
2021/11/27 06:51:16;;;;;;;;;;;22.00;50.60;;;;;;3144910;28;20328;-60
2021/11/27 06:52:48;;;;;;;;;;;22.00;50.50;;;;;;3145591;28;19925;-60
2021/11/27 06:54:19;;;;;;;;;;;22.10;50.70;;;;;;3144470;28;19925;-59
2021/11/27 06:55:51;;;;;;;;;;;22.10;50.80;;;;;;3144222;28;19929;-57
2021/11/27 06:57:24;;;;;;;;;;;22.10;51.00;;;;;;3145663;28;19978;-59
2021/11/27 06:58:56;;;;;;;;;;;22.10;50.90;;;;;;3138961;28;19940;-59
2021/11/27 07:00:27;;;;;;;;;;;22.10;51.20;;;;;;3145718;28;19929;-58
2021/11/27 07:01:59;;;;;;;;;;;22.20;51.20;;;;;;3145493;28;19931;-60
2021/11/27 07:03:30;;;;;;;;;;;22.20;51.30;;;;;;3138110;28;19925;-58
2021/11/27 07:05:02;;;;;;;;;;;22.20;51.20;;;;;;3143407;28;19935;-60
2021/11/27 07:06:33;;;;;;;;;;;22.20;51.50;;;;;;3145650;28;19924;-59
2021/11/27 07:08:07;;;;;;;;;;;22.20;51.50;;;;;;3138206;28;19932;-59
2021/11/27 07:09:39;;;;;;;;;;;22.20;51.50;;;;;;3136979;28;19932;-59
2021/11/27 07:11:10;;;;;;;;;;;22.30;51.60;;;;;;3136533;28;19947;-59
2021/11/27 07:12:43;;;;;;;;;;;22.20;51.70;;;;;;3143081;28;19924;-59
2021/11/27 07:14:14;;;;;;;;;;;22.20;51.80;;;;;;3138463;28;19925;-58
2021/11/27 07:15:45;;;;;;;;;;;22.20;51.40;;;;;;3141940;28;20502;-59
2021/11/27 07:17:17;;;;;;;;;;;22.20;51.50;;;;;;3141481;28;20373;-59
2021/11/27 07:18:48;;;;;;;;;;;22.20;51.80;;;;;;3144948;28;19928;-59
2021/11/27 07:20:20;;;;;;;;;;;22.20;51.90;;;;;;3146166;28;19970;-58
2021/11/27 07:21:51;;;;;;;;;;;22.30;51.90;;;;;;3145392;28;19933;-59
2021/11/27 07:23:23;;;;;;;;;;;22.30;52.00;;;;;;3198344;22;19933;-62
2021/11/27 07:24:55;;;;;;;;;;;22.30;52.00;;;;;;3137046;28;19924;-58
2021/11/27 07:26:26;;;;;;;;;;;22.40;51.90;;;;;;3142828;28;19932;-60
2021/11/27 07:27:59;;;;;;;;;;;22.40;51.90;;;;;;3147215;28;19951;-62
2021/11/27 07:29:32;;;;;;;;;;;22.40;52.00;;;;;;3147415;28;19924;-58
2021/11/27 07:31:04;;;;;;;;;;;22.40;52.30;;;;;;3125297;28;19928;-57
2021/11/27 07:32:35;;;;;;;;;;;22.50;52.40;;;;;;3133533;28;19944;-58
2021/11/27 07:34:07;;;;;;;;;;;22.50;52.20;;;;;;3127111;28;19932;-61
2021/11/27 07:35:38;;;;;;;;;;;22.50;52.20;;;;;;3132857;28;19956;-60
2021/11/27 07:37:10;;;;;;;;;;;22.60;52.20;;;;;;3131454;28;19929;-62
2021/11/27 07:38:42;;;;;;;;;;;22.60;52.20;;;;;;3133533;28;19925;-61
2021/11/27 07:40:13;;;;;;;;;;;22.60;52.30;;;;;;3131892;28;20408;-59
2021/11/27 07:41:45;;;;;;;;;;;22.70;52.30;;;;;;3126224;28;20441;-61
2021/11/27 07:43:18;;;;;;;;;;;22.60;52.20;;;;;;3132424;28;19925;-62
2021/11/27 07:44:51;;;;;;;;;;;22.70;52.30;;;;;;3129702;28;19929;-62
2021/11/27 07:46:23;;;;;;;;;;;22.70;52.30;;;;;;3128814;28;19956;-60
2021/11/27 07:47:55;;;;;;;;;;;22.70;52.30;;;;;;3134183;28;20021;-63
2021/11/27 07:49:27;;;;;;;;;;;22.80;52.40;;;;;;3131222;28;19925;-62
2021/11/27 07:50:59;;;;;;;;;;;22.70;52.30;;;;;;3130817;28;20319;-59
2021/11/27 07:52:30;;;;;;;;;;;22.70;51.60;;;;;;3128885;28;20019;-62
2021/11/27 07:54:03;;;;;;;;;;;22.70;50.80;;;;;;3129080;28;20450;-64
2021/11/27 07:55:35;;;;;;;;;;;22.70;50.90;;;;;;3131642;28;19924;-63
2021/11/27 07:57:06;;;;;;;;;;;22.70;51.00;;;;;;3135527;28;19925;-59
2021/11/27 07:58:39;;;;;;;;;;;22.70;51.30;;;;;;3134777;28;19931;-61
2021/11/27 08:00:12;;;;;;;;;;;22.70;51.30;;;;;;3130801;28;19925;-62
2021/11/27 08:01:43;;;;;;;;;;;22.80;51.40;;;;;;3133417;28;19931;-62
2021/11/27 08:03:15;;;;;;;;;;;22.80;51.50;;;;;;3132997;28;20380;-60
2021/11/27 08:04:46;;;;;;;;;;;22.80;51.70;;;;;;3133928;28;19951;-62
2021/11/27 08:06:18;;;;;;;;;;;22.80;52.00;;;;;;3127768;28;19929;-66
2021/11/27 08:07:51;;;;;;;;;;;22.80;52.10;;;;;;3132522;28;19988;-60
2021/11/27 08:09:22;;;;;;;;;;;22.80;52.00;;;;;;3132433;28;20003;-62
2021/11/27 08:10:54;;;;;;;;;;;22.80;52.10;;;;;;3126827;28;19925;-63
2021/11/27 08:12:25;;;;;;;;;;;22.80;52.30;;;;;;3130369;28;20293;-60
2021/11/27 08:14:00;;;;;;;;;;;22.80;52.10;;;;;;3132816;28;19925;-61
2021/11/27 08:15:32;;;;;;;;;;;22.90;52.10;;;;;;3127719;28;19932;-61
2021/11/27 08:17:03;;;;;;;;;;;22.90;51.70;;;;;;3132784;28;19932;-61
2021/11/27 08:18:35;;;;;;;;;;;22.80;50.90;;;;;;3128843;28;20305;-62
2021/11/27 08:20:07;;;;;;;;;;;22.70;50.70;;;;;;3133389;28;19978;-61
2021/11/27 08:21:39;;;;;;;;;;;22.70;50.90;;;;;;3132219;28;20019;-61
2021/11/27 08:23:10;;;;;;;;;;;22.80;51.30;;;;;;3126492;28;20419;-62
2021/11/27 08:24:42;;;;;;;;;;;22.80;51.40;;;;;;3132023;28;20370;-61
2021/11/27 08:26:14;;;;;;;;;;;22.90;51.60;;;;;;3135608;28;19924;-61
2021/11/27 08:27:45;;;;;;;;;;;22.90;51.60;;;;;;3130051;28;19971;-61
2021/11/27 08:29:18;;;;;;;;;;;22.90;51.60;;;;;;3132928;28;19932;-61
2021/11/27 08:30:50;;;;;;;;;;;22.90;51.50;;;;;;3129720;28;19955;-61
2021/11/27 08:32:22;;;;;;;;;;;23.00;51.70;;;;;;3130937;28;20266;-61
2021/11/27 08:33:53;;;;;;;;;;;22.90;51.80;;;;;;3132792;28;19933;-59
2021/11/27 08:35:25;;;;;;;;;;;23.00;51.70;;;;;;3134149;28;19999;-61
2021/11/27 08:36:57;;;;;;;;;;;23.00;51.70;;;;;;3132989;28;19924;-62
2021/11/27 08:38:30;;;;;;;;;;;23.00;51.80;;;;;;3133598;28;19929;-59
2021/11/27 08:40:02;;;;;;;;;;;23.10;51.80;;;;;;3125031;28;19929;-60
2021/11/27 08:41:34;;;;;;;;;;;23.10;51.90;;;;;;3127541;28;19986;-61
2021/11/27 08:43:05;;;;;;;;;;;23.00;51.50;;;;;;3131459;28;20428;-61
2021/11/27 08:44:38;;;;;;;;;;;23.00;51.30;;;;;;3133344;28;19932;-59
2021/11/27 08:46:10;;;;;;;;;;;23.00;51.60;;;;;;3132287;28;19924;-61
2021/11/27 08:47:41;;;;;;;;;;;23.00;51.70;;;;;;3133263;28;19924;-61
2021/11/27 08:50:53;;;;;;;;;;;23.10;51.80;;;;;;3502410;22;19939;-55
2021/11/27 08:52:25;;;;;;;;;;;23.10;51.70;;;;;;3154608;28;19993;-54
2021/11/27 08:53:56;;;;;;;;;;;23.00;51.70;;;;;;3154466;28;20057;-49
2021/11/27 08:57:08;;;;;;;;;;;23.00;51.20;;;;;;3386631;22;20643;-56